KGRD

Greenwood County Airport

Greenwood, South Carolina, USA
METAR KGRD 181856Z AUTO 22008KT 10SM -RA BKN110 18/12 A3011 RMK AO2 RAB07E11B29 SLP194 P0000 T01830117
Observed Flight Rules
Dec-18 @ 18:56 UTC (an hour ago) Visual Flight Rules
Wind Visibility Clouds Conditions
220° at 8 knots 10 miles
  • Broken at 11,000' AGL
  • Light Rain
Temperatures Readings Precipitation
Current 18°C / 64°F
Dewpoint 12°C / 54°F
Humidity 68%
Altimeter 30.11" Hg
Pressure 1019.4 hPa
Elevation 185
Current Rain 0.005
METAR KGRD 181856Z AUTO 22008KT 10SM -RA BKN110 18/12 A3011 RMK AO2 RAB07E11B29 SLP194 P0000 T01830117
Observed Flight Rules
Dec-18 @ 18:56 UTC
(an hour ago)
VFR
Wind Visibility
220° at 8 knots 10 miles
Clouds
  • Broken at 11,000' AGL
Conditions
  • Light Rain
Temperature Dewpoint
18°C / 64°F 12°C / 54°F
Humidity Altimeter Pressure
68% 30.11" Hg 1019.4 hPa
Current Rain
0.005